Fort Yates, North Dakota
Current Conditions -  °F | °C
As of 6:15 AM on Friday 31 Oct 2014 (Local Time) from K7L2 Reporting Station
Clear Clear  
Wind Chill:   Ceiling: Unl
Heat Index: 10°   Visibility: 10mi
Dew Point: 10°   Wind: 6mph
Humidity: 100%   Direction: 120°ESE
Pressure: 30.54"   Gusts: NA
Location:  46.09°N, 100.64°W
Report Text: K7L2 311215Z AUTO 12005KT 10SM CLR M12/M12 A3054 RMK AO2 PWINO PNO
Loading
Personal Weather Stations






























Interactive Weather Map
Tropical Storm Tracking
New forecast layout! Learn more

10-Day Weather Forecast

Advertisements
Track Severe Weather on mobile